Superior, Arizona
Current Conditions -  °F | °C
As of 6:47 PM on Monday 20 Oct 2014 (Local Time) from KIWA Reporting Station
Clear Clear  
Wind Chill: 79°   Ceiling: Unl
Heat Index: 79°   Visibility: 20mi
Dew Point: 48°   Wind: 3mph
Humidity: 34%   Direction: 300°WNW
Pressure: 29.85"   Gusts: NA
Location:  33.29°N, 111.1°W
Report Text: KIWA 210147Z 30003KT 20SM SKC 26/09 A2985
Loading
Personal Weather Stations






























Interactive Weather Map
Tropical Storm Tracking
New forecast layout! Learn more

10-Day Weather Forecast

Advertisements
Track Severe Weather on mobile